LYTV/TIV METAR and TAF weather

Enter ICAO airport designator
Station Type Date Time Source
LYTV METAR 2019/11/14 04:00 UTC NOAA

LYTV 140400Z 27002KT 9999 FEW043 13/13 Q1008


Station Type Date Time Source
LYTV Decoded METAR 2019/11/14 04:00 UTC NOAA

Tivat, Serbia and Montenegro (LYTV) 42-24N 018-44E 5M
Nov 13, 2019 - 11:00 PM EST / 2019.11.14 0400 UTC
Wind: from the W (270 degrees) at 2 MPH (2 KT):0
Visibility: greater than 7 mile(s):0
Sky conditions: mostly clear
Temperature: 55 F (13 C)
Dew Point: 55 F (13 C)
Relative Humidity: 100%
Pressure (altimeter): 29.77 in. Hg (1008 hPa)
ob: LYTV 140400Z 27002KT 9999 FEW043 13/13 Q1008
cycle: 4

Station Type Date Time Source
LYTV TAF 2019/11/13 18:21 UTC NOAA

TAF LYTV 131700Z 1318/1418 15007KT 9999 FEW015 SCT023 OVC070 TX19/1412Z TN08/1403Z
TEMPO 1318/1322 4000 RA PROB40
TEMPO 1318/1320 2000 TSRA FEW013 FEW025CB BKN030

Example: see airport list